Terminal Aerodrome Forecast
Issued by NWS

Home | Current Version | Previous Version | Text Only | Print | Product List | Glossary On
Versions: 1 2 3 4 5 6 7 8 9 10 11 12
000
FTUS45 KSLC 290527
TAF36U
TAF
K36U 290527Z 2906/3006 VRB03KT P6SM SKC
     FM292100 30007KT P6SM FEW150
     FM300300 VRB04KT P6SM FEW150=

USA.gov is the U.S. government's official web portal to all federal, state and local government web resources and services.